Time;durP1;ratioP1;P1;durP2;ratioP2;P2;SDS_P1;SDS_P2;PMS_P1;PMS_P2;Temp;Humidity;BMP_temperature;BMP_pressure;BME280_temperature;BME280_humidity;BME280_pressure;Samples;Min_cycle;Max_cycle;Signal;HPM_P1;HPM_P2
2022/09/29 00:02:02;;;;;;;2.55;1.80;;;;;;;;;;5026460;28;20677;-59
2022/09/29 00:04:29;;;;;;;2.10;1.58;;;;;;;;;;5028076;28;20049;-59
2022/09/29 00:06:55;;;;;;;4.50;2.05;;;;;;;;;;5027670;28;20042;-58
2022/09/29 00:09:21;;;;;;;3.65;1.67;;;;;;;;;;5026833;28;20403;-59
2022/09/29 00:11:47;;;;;;;2.85;1.63;;;;;;;;;;5026944;28;20487;-58
2022/09/29 00:14:13;;;;;;;4.63;2.15;;;;;;;;;;5010171;28;20087;-59
2022/09/29 00:16:39;;;;;;;4.22;2.45;;;;;;;;;;5025594;28;20037;-59
2022/09/29 00:19:05;;;;;;;3.88;2.30;;;;;;;;;;5009521;28;20053;-58
2022/09/29 00:21:32;;;;;;;4.20;2.40;;;;;;;;;;5027317;28;20116;-61
2022/09/29 00:24:00;;;;;;;10.45;2.83;;;;;;;;;;5027649;28;20045;-58
2022/09/29 00:26:26;;;;;;;5.30;2.83;;;;;;;;;;5026925;28;20045;-58
2022/09/29 00:28:55;;;;;;;4.28;2.50;;;;;;;;;;5026600;28;20037;-59
2022/09/29 00:31:22;;;;;;;3.70;2.40;;;;;;;;;;5026398;28;20049;-59
2022/09/29 00:33:49;;;;;;;5.00;2.45;;;;;;;;;;5026716;28;20102;-59
2022/09/29 00:36:16;;;;;;;4.53;2.60;;;;;;;;;;5027003;28;20498;-59
2022/09/29 00:38:43;;;;;;;5.93;2.33;;;;;;;;;;5026561;28;20037;-58
2022/09/29 00:41:17;;;;;;;3.63;2.05;;;;;;;;;;5026750;28;20037;-58
2022/09/29 00:44:00;;;;;;;4.15;2.53;;;;;;;;;;5010735;28;20045;-59
2022/09/29 00:46:31;;;;;;;3.25;1.60;;;;;;;;;;5025543;28;20124;-59
2022/09/29 00:48:59;;;;;;;4.50;1.75;;;;;;;;;;5026615;28;20048;-58
2022/09/29 00:51:27;;;;;;;6.70;2.30;;;;;;;;;;5009693;28;20049;-59
2022/09/29 00:53:53;;;;;;;28.30;3.53;;;;;;;;;;5025998;28;20479;-58
2022/09/29 00:56:20;;;;;;;27.90;2.83;;;;;;;;;;5027008;28;20047;-59
2022/09/29 00:58:53;;;;;;;10.75;2.40;;;;;;;;;;5026440;28;20048;-58
2022/09/29 01:01:20;;;;;;;6.15;2.28;;;;;;;;;;5026021;28;20041;-59
2022/09/29 01:03:47;;;;;;;3.05;1.35;;;;;;;;;;5022381;28;20103;-58
2022/09/29 01:06:17;;;;;;;2.15;1.48;;;;;;;;;;5026409;28;20044;-58
2022/09/29 01:08:46;;;;;;;2.28;1.45;;;;;;;;;;5025887;28;20052;-58
2022/09/29 01:11:13;;;;;;;4.00;1.70;;;;;;;;;;5026115;28;20083;-59
2022/09/29 01:13:40;;;;;;;2.20;1.20;;;;;;;;;;5007057;28;20504;-58
2022/09/29 01:16:06;;;;;;;3.05;1.00;;;;;;;;;;5024669;28;20041;-59
2022/09/29 01:18:33;;;;;;;1.95;1.50;;;;;;;;;;5025786;28;20057;-61
2022/09/29 01:21:06;;;;;;;2.28;1.30;;;;;;;;;;5026348;28;20041;-59
2022/09/29 01:23:39;;;;;;;2.08;1.50;;;;;;;;;;5023670;28;20053;-60
2022/09/29 01:26:12;;;;;;;2.20;1.58;;;;;;;;;;5026175;28;20041;-59
2022/09/29 01:28:50;;;;;;;5.55;1.95;;;;;;;;;;5022592;28;20041;-58
2022/09/29 01:31:23;;;;;;;9.15;1.98;;;;;;;;;;5025521;28;20502;-58
2022/09/29 01:34:00;;;;;;;1.90;1.20;;;;;;;;;;5017043;28;20505;-59
2022/09/29 01:36:32;;;;;;;3.08;1.20;;;;;;;;;;5025542;28;20069;-59
2022/09/29 01:39:16;;;;;;;2.78;1.75;;;;;;;;;;5026278;28;20111;-59
2022/09/29 01:41:43;;;;;;;3.55;1.67;;;;;;;;;;5025651;28;20391;-58
2022/09/29 01:44:09;;;;;;;3.42;1.80;;;;;;;;;;5026055;28;20038;-58
2022/09/29 01:46:37;;;;;;;6.07;2.13;;;;;;;;;;5024912;28;20052;-59
2022/09/29 01:49:03;;;;;;;;;;;;;;;;;;5020985;28;20083;-59
2022/09/29 01:51:35;;;;;;;3.53;1.70;;;;;;;;;;5026061;28;19928;-58
2022/09/29 01:54:05;;;;;;;2.67;1.85;;;;;;;;;;5026370;28;20046;-59
2022/09/29 01:56:36;;;;;;;5.55;1.98;;;;;;;;;;5026153;28;20660;-58
2022/09/29 01:59:05;;;;;;;30.60;3.35;;;;;;;;;;5025378;28;20120;-60
2022/09/29 02:01:34;;;;;;;27.95;2.88;;;;;;;;;;5029739;28;20191;-59
2022/09/29 02:04:04;;;;;;;10.25;2.47;;;;;;;;;;5030130;28;20060;-59
2022/09/29 02:06:35;;;;;;;5.15;1.88;;;;;;;;;;5029663;28;20045;-58
2022/09/29 02:09:02;;;;;;;18.30;2.80;;;;;;;;;;5029792;28;20037;-59
2022/09/29 02:11:30;;;;;;;24.05;2.65;;;;;;;;;;5029732;28;20045;-59
2022/09/29 02:13:57;;;;;;;24.80;2.70;;;;;;;;;;5029415;28;20548;-58
2022/09/29 02:16:25;;;;;;;12.30;2.28;;;;;;;;;;5029086;28;20403;-59
2022/09/29 02:18:53;;;;;;;23.95;2.90;;;;;;;;;;5029212;28;20692;-58
2022/09/29 02:21:19;;;;;;;39.33;3.95;;;;;;;;;;5029067;28;20056;-58
2022/09/29 02:23:45;;;;;;;24.90;3.40;;;;;;;;;;5028843;28;20044;-59
2022/09/29 02:26:12;;;;;;;38.53;4.13;;;;;;;;;;5029239;28;20049;-58
2022/09/29 02:28:38;;;;;;;35.70;3.10;;;;;;;;;;5029331;28;20483;-58
2022/09/29 02:31:05;;;;;;;27.67;3.42;;;;;;;;;;5028837;28;20056;-58
2022/09/29 02:33:31;;;;;;;32.40;2.70;;;;;;;;;;5029808;28;20045;-58
2022/09/29 02:36:04;;;;;;;11.63;1.95;;;;;;;;;;5029240;28;20037;-59
2022/09/29 02:38:47;;;;;;;17.75;2.40;;;;;;;;;;5029549;28;20049;-58
2022/09/29 02:41:26;;;;;;;3.63;2.25;;;;;;;;;;5011866;28;20076;-58
2022/09/29 02:43:54;;;;;;;7.90;2.83;;;;;;;;;;5028841;28;20042;-58
2022/09/29 02:46:27;;;;;;;13.02;2.50;;;;;;;;;;5027960;28;20041;-58
2022/09/29 02:49:12;;;;;;;18.00;2.70;;;;;;;;;;5028391;28;20066;-58
2022/09/29 02:51:41;;;;;;;6.72;2.47;;;;;;;;;;5027905;28;20049;-59
2022/09/29 02:54:07;;;;;;;12.52;2.10;;;;;;;;;;5028679;28;20483;-58
2022/09/29 02:56:46;;;;;;;7.18;2.80;;;;;;;;;;5028389;28;20045;-59
2022/09/29 02:59:16;;;;;;;7.70;2.50;;;;;;;;;;5028409;28;20037;-58
2022/09/29 03:01:48;;;;;;;18.92;2.83;;;;;;;;;;5027678;28;20048;-58
2022/09/29 03:04:14;;;;;;;21.35;2.90;;;;;;;;;;5029003;28;20487;-58
2022/09/29 03:06:40;;;;;;;25.60;3.00;;;;;;;;;;5011101;28;20052;-59
2022/09/29 03:09:06;;;;;;;23.05;2.78;;;;;;;;;;5011542;28;20424;-58
2022/09/29 03:11:32;;;;;;;27.10;2.88;;;;;;;;;;5027384;28;20514;-61
2022/09/29 03:13:59;;;;;;;16.92;2.47;;;;;;;;;;5028253;28;20124;-58
2022/09/29 03:16:25;;;;;;;60.72;4.82;;;;;;;;;;5027835;28;20049;-58
2022/09/29 03:18:52;;;;;;;22.42;3.38;;;;;;;;;;5028124;28;20850;-59
2022/09/29 03:21:18;;;;;;;40.80;3.47;;;;;;;;;;5028711;28;20124;-58
2022/09/29 03:23:44;;;;;;;23.30;3.85;;;;;;;;;;5027861;28;20045;-58
2022/09/29 03:26:10;;;;;;;21.77;4.00;;;;;;;;;;5027999;28;20045;-59
2022/09/29 03:28:36;;;;;;;53.85;4.13;;;;;;;;;;5028218;28;20037;-58
2022/09/29 03:31:05;;;;;;;23.30;3.10;;;;;;;;;;5026647;28;20498;-59
2022/09/29 03:33:31;;;;;;;;;;;;;;;;;;5028619;28;20056;-61
2022/09/29 03:35:57;;;;;;;17.08;2.50;;;;;;;;;;5028264;28;19921;-59
2022/09/29 03:38:23;;;;;;;9.00;2.50;;;;;;;;;;5028046;28;20050;-58
2022/09/29 03:40:50;;;;;;;2.92;2.45;;;;;;;;;;5020969;28;20519;-58
2022/09/29 03:43:16;;;;;;;15.85;2.85;;;;;;;;;;5028017;28;20048;-58
2022/09/29 03:45:48;;;;;;;34.40;4.13;;;;;;;;;;5027046;28;20068;-58
2022/09/29 03:48:15;;;;;;;45.40;3.97;;;;;;;;;;5024432;28;20052;-58
2022/09/29 03:50:42;;;;;;;23.60;3.25;;;;;;;;;;5027450;28;20077;-59
2022/09/29 03:53:08;;;;;;;55.33;6.00;;;;;;;;;;5027624;28;20049;-58
2022/09/29 03:55:34;;;;;;;61.17;4.80;;;;;;;;;;5023482;28;20065;-59
2022/09/29 03:58:00;;;;;;;36.78;3.75;;;;;;;;;;5028044;28;20084;-58
2022/09/29 04:00:26;;;;;;;47.85;5.63;;;;;;;;;;5027268;28;20041;-58
2022/09/29 04:02:54;;;;;;;67.15;4.45;;;;;;;;;;5027176;28;20107;-59
2022/09/29 04:05:20;;;;;;;75.35;4.78;;;;;;;;;;5027327;28;20041;-59
2022/09/29 04:07:46;;;;;;;50.92;4.32;;;;;;;;;;5027385;28;20038;-58
2022/09/29 04:10:13;;;;;;;62.35;5.43;;;;;;;;;;5026995;28;20153;-59
2022/09/29 04:12:39;;;;;;;40.58;3.75;;;;;;;;;;5026814;28;20041;-59
2022/09/29 04:15:06;;;;;;;42.78;4.00;;;;;;;;;;5026796;28;20042;-58
2022/09/29 04:17:32;;;;;;;37.83;6.35;;;;;;;;;;5027297;28;20048;-60
2022/09/29 04:19:58;;;;;;;36.38;4.05;;;;;;;;;;5027641;28;20107;-59
2022/09/29 04:22:24;;;;;;;61.30;6.22;;;;;;;;;;5026275;28;20437;-59
2022/09/29 04:24:51;;;;;;;22.08;3.35;;;;;;;;;;5026765;28;20056;-58
2022/09/29 04:27:17;;;;;;;25.08;4.10;;;;;;;;;;5014399;28;20037;-58
2022/09/29 04:29:44;;;;;;;12.80;3.10;;;;;;;;;;5026151;28;20506;-58
2022/09/29 04:32:10;;;;;;;26.83;3.97;;;;;;;;;;5027137;28;20140;-58
2022/09/29 04:34:36;;;;;;;10.90;2.97;;;;;;;;;;5026745;28;20045;-58
2022/09/29 04:37:02;;;;;;;16.27;3.60;;;;;;;;;;5026818;28;20038;-59
2022/09/29 04:39:29;;;;;;;20.63;3.88;;;;;;;;;;5027048;28;20050;-58
2022/09/29 04:41:55;;;;;;;9.30;3.00;;;;;;;;;;5026437;28;20037;-59
2022/09/29 04:44:23;;;;;;;9.52;2.72;;;;;;;;;;5026223;28;20068;-58
2022/09/29 04:46:50;;;;;;;8.20;3.20;;;;;;;;;;5026413;28;20037;-58
2022/09/29 04:49:17;;;;;;;11.88;3.13;;;;;;;;;;5026767;28;20122;-59
2022/09/29 04:51:43;;;;;;;9.85;3.22;;;;;;;;;;5008869;28;20052;-58
2022/09/29 04:54:09;;;;;;;5.70;3.20;;;;;;;;;;5026527;28;20067;-58
2022/09/29 04:56:35;;;;;;;10.43;3.50;;;;;;;;;;5026146;28;20045;-58
2022/09/29 04:59:01;;;;;;;9.35;3.10;;;;;;;;;;5026726;28;20052;-60
2022/09/29 05:01:28;;;;;;;12.05;2.97;;;;;;;;;;5025995;28;20049;-58
2022/09/29 05:03:55;;;;;;;11.90;3.83;;;;;;;;;;5008616;28;20471;-58
2022/09/29 05:06:21;;;;;;;6.10;2.83;;;;;;;;;;5026632;28;20534;-59
2022/09/29 05:08:47;;;;;;;17.40;3.97;;;;;;;;;;5026215;28;20451;-58
2022/09/29 05:11:14;;;;;;;17.48;3.70;;;;;;;;;;5026008;28;20049;-58
2022/09/29 05:13:40;;;;;;;35.65;5.72;;;;;;;;;;5025336;28;20176;-59
2022/09/29 05:16:07;;;;;;;25.25;4.80;;;;;;;;;;5025536;28;20099;-58
2022/09/29 05:18:33;;;;;;;23.55;4.47;;;;;;;;;;5021395;28;20648;-59
2022/09/29 05:21:05;;;;;;;30.52;4.85;;;;;;;;;;5026671;28;20045;-59
2022/09/29 05:23:32;;;;;;;23.60;4.15;;;;;;;;;;5025998;28;20041;-59
2022/09/29 05:26:05;;;;;;;22.17;4.38;;;;;;;;;;5026421;28;20717;-58
2022/09/29 05:28:32;;;;;;;42.92;4.80;;;;;;;;;;5026151;28;20041;-59
2022/09/29 05:31:05;;;;;;;20.58;4.43;;;;;;;;;;5024580;28;20029;-57
2022/09/29 05:33:31;;;;;;;10.98;3.58;;;;;;;;;;5025580;28;20585;-57
2022/09/29 05:35:58;;;;;;;16.08;3.83;;;;;;;;;;5019260;28;20041;-58
2022/09/29 05:38:24;;;;;;;22.42;4.32;;;;;;;;;;5014328;28;20562;-58
2022/09/29 05:40:51;;;;;;;8.80;3.78;;;;;;;;;;5026066;28;20047;-56
2022/09/29 05:43:17;;;;;;;11.82;3.38;;;;;;;;;;5024627;28;20059;-58
2022/09/29 05:45:43;;;;;;;5.90;3.13;;;;;;;;;;5024521;28;20045;-58
2022/09/29 05:48:10;;;;;;;7.63;3.58;;;;;;;;;;5026253;28;20087;-58
2022/09/29 05:50:40;;;;;;;5.70;3.08;;;;;;;;;;5025409;28;20081;-57
2022/09/29 05:53:07;;;;;;;5.45;2.88;;;;;;;;;;5026097;28;20046;-57
2022/09/29 05:55:35;;;;;;;4.40;3.25;;;;;;;;;;5025377;28;20137;-58
2022/09/29 05:58:01;;;;;;;4.30;3.42;;;;;;;;;;5026669;28;20394;-58
2022/09/29 06:00:30;;;;;;;7.97;3.53;;;;;;;;;;5025313;28;20586;-58
2022/09/29 06:02:56;;;;;;;;;;;;;;;;;;5026175;28;20422;-57
2022/09/29 06:05:22;;;;;;;6.57;3.25;;;;;;;;;;5025466;28;20466;-58
2022/09/29 06:07:48;;;;;;;18.23;3.80;;;;;;;;;;5027878;28;20410;-58
2022/09/29 06:10:14;;;;;;;12.38;3.35;;;;;;;;;;5027934;28;20076;-58
2022/09/29 06:12:41;;;;;;;10.30;3.80;;;;;;;;;;5027227;28;20083;-57
2022/09/29 06:15:07;;;;;;;12.75;4.07;;;;;;;;;;5028702;28;20037;-57
2022/09/29 06:17:33;;;;;;;13.77;3.78;;;;;;;;;;5027641;28;20609;-58
2022/09/29 06:20:00;;;;;;;9.13;4.07;;;;;;;;;;5026625;28;20048;-58
2022/09/29 06:22:26;;;;;;;19.80;4.05;;;;;;;;;;5028334;28;20045;-58
2022/09/29 06:24:53;;;;;;;16.25;4.10;;;;;;;;;;5027377;28;20054;-57
2022/09/29 06:27:19;;;;;;;15.95;4.50;;;;;;;;;;5029159;28;20048;-58
2022/09/29 06:29:45;;;;;;;27.33;5.03;;;;;;;;;;5027961;28;20472;-58
2022/09/29 06:32:12;;;;;;;15.73;5.05;;;;;;;;;;5025726;28;20046;-57
2022/09/29 06:37:33;;;;;;;21.98;4.72;;;;;;;;;;5028619;28;20042;-58
2022/09/29 06:37:33;;;;;;;10.48;4.70;;;;;;;;;;5022742;28;20484;-57
2022/09/29 06:40:00;;;;;;;8.25;4.40;;;;;;;;;;5023881;28;20041;-58
2022/09/29 06:42:26;;;;;;;7.60;4.85;;;;;;;;;;5026595;28;20041;-58
2022/09/29 06:44:53;;;;;;;8.90;5.53;;;;;;;;;;5025259;28;20132;-56
2022/09/29 06:47:20;;;;;;;10.30;5.28;;;;;;;;;;5032282;28;20046;-57
2022/09/29 06:49:47;;;;;;;7.93;5.22;;;;;;;;;;5029017;28;20037;-56
2022/09/29 06:52:13;;;;;;;11.48;5.85;;;;;;;;;;5013459;28;20078;-58
2022/09/29 06:54:39;;;;;;;14.70;6.40;;;;;;;;;;5029987;28;20524;-58
2022/09/29 06:57:06;;;;;;;10.10;7.15;;;;;;;;;;5029210;28;20080;-58
2022/09/29 06:59:32;;;;;;;10.55;6.57;;;;;;;;;;5028095;28;20050;-59
2022/09/29 07:01:58;;;;;;;11.00;6.10;;;;;;;;;;5029100;28;20037;-57
2022/09/29 07:04:24;;;;;;;14.02;7.30;;;;;;;;;;5028734;28;20068;-57
2022/09/29 07:06:51;;;;;;;16.50;7.53;;;;;;;;;;5028332;28;20046;-58
2022/09/29 07:09:17;;;;;;;10.85;7.55;;;;;;;;;;5028842;28;20507;-57
2022/09/29 07:11:45;;;;;;;14.80;7.15;;;;;;;;;;5027631;28;20053;-57
2022/09/29 07:14:13;;;;;;;15.77;8.68;;;;;;;;;;5025846;28;20123;-58
2022/09/29 07:16:39;;;;;;;31.48;11.70;;;;;;;;;;5028512;28;20041;-57
2022/09/29 07:19:05;;;;;;;15.45;8.45;;;;;;;;;;5028302;28;20430;-58
2022/09/29 07:21:31;;;;;;;17.42;9.35;;;;;;;;;;5028336;28;20573;-59
2022/09/29 07:23:58;;;;;;;18.35;8.25;;;;;;;;;;5028689;28;20558;-58
2022/09/29 07:26:24;;;;;;;18.92;9.18;;;;;;;;;;5028539;28;20041;-57
2022/09/29 07:28:50;;;;;;;13.68;8.57;;;;;;;;;;5026810;28;20041;-58
2022/09/29 07:31:17;;;;;;;15.23;8.85;;;;;;;;;;5028222;28;20045;-58
2022/09/29 07:33:44;;;;;;;17.38;9.77;;;;;;;;;;5028079;28;20450;-58
2022/09/29 07:36:11;;;;;;;18.98;8.57;;;;;;;;;;5027067;28;20033;-58
2022/09/29 07:38:37;;;;;;;18.67;8.50;;;;;;;;;;5028012;28;20052;-58
2022/09/29 07:41:04;;;;;;;15.18;9.02;;;;;;;;;;5028189;28;20138;-56
2022/09/29 07:43:30;;;;;;;14.80;8.32;;;;;;;;;;5028649;28;20125;-57
2022/09/29 07:45:59;;;;;;;22.70;9.65;;;;;;;;;;5026845;28;20064;-58
2022/09/29 07:48:25;;;;;;;17.48;9.43;;;;;;;;;;5027930;28;20107;-58
2022/09/29 07:50:51;;;;;;;17.70;9.60;;;;;;;;;;5027402;28;20045;-58
2022/09/29 07:53:18;;;;;;;17.88;9.40;;;;;;;;;;5028112;28;20041;-57
2022/09/29 07:55:44;;;;;;;18.45;10.15;;;;;;;;;;5027779;28;20499;-58
2022/09/29 07:58:10;;;;;;;18.23;9.32;;;;;;;;;;5027450;28;20395;-57
2022/09/29 08:00:36;;;;;;;15.18;8.60;;;;;;;;;;5026926;28;20037;-57
2022/09/29 08:03:03;;;;;;;15.32;9.57;;;;;;;;;;5027103;28;20057;-59
2022/09/29 08:05:32;;;;;;;15.35;9.85;;;;;;;;;;5027654;28;20152;-58
2022/09/29 08:07:59;;;;;;;20.63;9.98;;;;;;;;;;5027997;28;20080;-58
2022/09/29 08:10:26;;;;;;;17.20;9.75;;;;;;;;;;5027277;28;20049;-57
2022/09/29 08:12:53;;;;;;;20.73;10.60;;;;;;;;;;5026744;28;20045;-57
2022/09/29 08:15:19;;;;;;;18.98;10.65;;;;;;;;;;5026318;28;20049;-58
2022/09/29 08:17:46;;;;;;;16.75;10.35;;;;;;;;;;5026721;28;20073;-58
2022/09/29 08:20:12;;;;;;;18.55;11.20;;;;;;;;;;5012868;28;20044;-58
2022/09/29 08:22:38;;;;;;;18.45;10.27;;;;;;;;;;5026457;28;20128;-57
2022/09/29 08:25:05;;;;;;;17.20;10.20;;;;;;;;;;5027154;28;20052;-58
2022/09/29 08:27:31;;;;;;;21.30;10.68;;;;;;;;;;5027412;28;20132;-57
2022/09/29 08:29:58;;;;;;;16.40;10.18;;;;;;;;;;5026611;28;20037;-56
2022/09/29 08:32:24;;;;;;;16.75;8.95;;;;;;;;;;5026995;28;20052;-58
2022/09/29 08:34:50;;;;;;;17.77;10.02;;;;;;;;;;5026783;28;20034;-58
2022/09/29 08:37:16;;;;;;;15.18;9.38;;;;;;;;;;5027071;28;20083;-58
2022/09/29 08:39:43;;;;;;;13.80;8.80;;;;;;;;;;5026106;28;20057;-58
2022/09/29 08:42:23;;;;;;;15.88;9.27;;;;;;;;;;5026962;28;20391;-57
2022/09/29 08:44:54;;;;;;;13.40;8.27;;;;;;;;;;5024934;28;20064;-57
2022/09/29 08:47:28;;;;;;;14.80;9.55;;;;;;;;;;5026578;28;20110;-58
2022/09/29 08:49:57;;;;;;;15.73;8.70;;;;;;;;;;5024958;28;20045;-58
2022/09/29 08:52:25;;;;;;;16.38;8.98;;;;;;;;;;5026311;28;20049;-58
2022/09/29 08:54:56;;;;;;;15.82;9.25;;;;;;;;;;5026229;28;20136;-57
2022/09/29 08:57:23;;;;;;;14.60;8.43;;;;;;;;;;5026391;28;20451;-57
2022/09/29 08:59:53;;;;;;;15.00;8.25;;;;;;;;;;5025595;28;20095;-56
2022/09/29 09:02:20;;;;;;;14.68;7.57;;;;;;;;;;5025002;28;20095;-57
2022/09/29 09:05:07;;;;;;;15.85;8.07;;;;;;;;;;5025966;28;20082;-58
2022/09/29 09:07:34;;;;;;;12.10;7.25;;;;;;;;;;5025171;28;20034;-58
2022/09/29 09:10:05;;;;;;;15.38;7.68;;;;;;;;;;5026025;28;20060;-58
2022/09/29 09:12:32;;;;;;;13.68;7.57;;;;;;;;;;5023541;28;20068;-58
2022/09/29 09:15:20;;;;;;;12.45;7.47;;;;;;;;;;5026191;28;20120;-57
2022/09/29 09:18:03;;;;;;;30.50;8.32;;;;;;;;;;5024026;28;20072;-58
2022/09/29 09:20:35;;;;;;;13.50;8.25;;;;;;;;;;5026394;28;20053;-58
2022/09/29 09:23:08;;;;;;;14.90;7.82;;;;;;;;;;5026495;28;20045;-58
2022/09/29 09:25:35;;;;;;;14.18;8.60;;;;;;;;;;5025991;28;20064;-58
2022/09/29 09:28:04;;;;;;;18.05;9.00;;;;;;;;;;5012511;28;20045;-57
2022/09/29 09:30:37;;;;;;;13.60;7.95;;;;;;;;;;5026034;28;20033;-58
2022/09/29 09:33:06;;;;;;;11.68;7.43;;;;;;;;;;5023566;28;20407;-57
2022/09/29 09:35:39;;;;;;;15.40;8.18;;;;;;;;;;5025780;28;20063;-59
2022/09/29 09:38:10;;;;;;;12.73;8.23;;;;;;;;;;5025274;28;20045;-58
2022/09/29 09:40:41;;;;;;;12.02;8.43;;;;;;;;;;5008891;28;20479;-57
2022/09/29 09:43:11;;;;;;;15.25;8.25;;;;;;;;;;5024356;28;20379;-58
2022/09/29 09:45:39;;;;;;;12.45;6.68;;;;;;;;;;5024401;28;20380;-58
2022/09/29 09:48:12;;;;;;;10.65;6.78;;;;;;;;;;5025916;28;20172;-58
2022/09/29 09:50:41;;;;;;;11.00;6.60;;;;;;;;;;5025539;28;20491;-57
2022/09/29 09:53:17;;;;;;;9.10;6.18;;;;;;;;;;5025664;28;20049;-57
2022/09/29 09:55:43;;;;;;;11.07;6.53;;;;;;;;;;5025720;28;20049;-57
2022/09/29 09:58:27;;;;;;;10.40;6.35;;;;;;;;;;5025634;28;20048;-58
2022/09/29 10:00:56;;;;;;;9.05;5.55;;;;;;;;;;5025400;28;20049;-58
2022/09/29 10:03:22;;;;;;;9.02;5.18;;;;;;;;;;5025797;28;20083;-58
2022/09/29 10:05:49;;;;;;;7.53;4.80;;;;;;;;;;5025378;28;20131;-58
2022/09/29 10:08:26;;;;;;;8.57;5.13;;;;;;;;;;5025841;28;20095;-58
2022/09/29 10:10:53;;;;;;;9.20;4.67;;;;;;;;;;5022765;28;20136;-58
2022/09/29 10:13:20;;;;;;;8.15;4.95;;;;;;;;;;5024900;28;20041;-59
2022/09/29 10:15:51;;;;;;;9.57;5.63;;;;;;;;;;5024773;28;20052;-58
2022/09/29 10:18:31;;;;;;;12.30;5.25;;;;;;;;;;5025622;28;20037;-58
2022/09/29 10:20:57;;;;;;;10.32;5.75;;;;;;;;;;5027564;28;20483;-58
2022/09/29 10:23:24;;;;;;;9.77;5.35;;;;;;;;;;5029586;28;20037;-58
2022/09/29 10:25:59;;;;;;;9.57;5.05;;;;;;;;;;5029286;28;20112;-58
2022/09/29 10:28:27;;;;;;;8.88;5.25;;;;;;;;;;5029058;28;20114;-58
2022/09/29 10:30:54;;;;;;;7.10;4.35;;;;;;;;;;5029149;28;20748;-58
2022/09/29 10:33:22;;;;;;;7.55;4.93;;;;;;;;;;5028787;28;20495;-57
2022/09/29 10:35:51;;;;;;;8.45;5.28;;;;;;;;;;5028945;28;20087;-58
2022/09/29 10:38:20;;;;;;;6.85;4.60;;;;;;;;;;5029400;28;20062;-58
2022/09/29 10:40:53;;;;;;;8.57;3.65;;;;;;;;;;5025752;28;20044;-57
2022/09/29 10:43:27;;;;;;;10.65;3.85;;;;;;;;;;5028506;28;20034;-58
2022/09/29 10:45:57;;;;;;;6.88;3.92;;;;;;;;;;5028536;28;20045;-58
2022/09/29 10:48:23;;;;;;;5.95;3.95;;;;;;;;;;5028555;28;20045;-58
2022/09/29 10:50:51;;;;;;;8.00;3.28;;;;;;;;;;5028265;28;20034;-58
2022/09/29 10:53:22;;;;;;;7.00;3.80;;;;;;;;;;5025735;28;20152;-58
2022/09/29 10:55:50;;;;;;;7.07;4.20;;;;;;;;;;5028669;28;20112;-58
2022/09/29 10:58:16;;;;;;;;;;;;;;;;;;5025706;28;20037;-58
2022/09/29 11:00:43;;;;;;;6.25;3.40;;;;;;;;;;5026521;28;19940;-58
2022/09/29 11:03:15;;;;;;;5.60;3.60;;;;;;;;;;5026589;28;20377;-58
2022/09/29 11:05:50;;;;;;;8.20;3.60;;;;;;;;;;5023375;28;20041;-58
2022/09/29 11:08:18;;;;;;;10.68;3.97;;;;;;;;;;5026313;28;20091;-58
2022/09/29 11:10:46;;;;;;;8.47;4.37;;;;;;;;;;5025536;28;20061;-58
2022/09/29 11:13:16;;;;;;;7.22;3.83;;;;;;;;;;5012046;28;20060;-58
2022/09/29 11:15:42;;;;;;;4.50;3.38;;;;;;;;;;5025866;28;20446;-58
2022/09/29 11:18:28;;;;;;;4.93;3.40;;;;;;;;;;5026215;28;20511;-58
2022/09/29 11:21:03;;;;;;;3.75;2.80;;;;;;;;;;5024763;28;20041;-58
2022/09/29 11:23:32;;;;;;;6.10;3.13;;;;;;;;;;5026713;28;20097;-58
2022/09/29 11:26:13;;;;;;;6.15;3.63;;;;;;;;;;5026609;28;20048;-58
2022/09/29 11:28:46;;;;;;;6.50;4.03;;;;;;;;;;5023269;28;20112;-58
2022/09/29 11:31:13;;;;;;;8.82;3.60;;;;;;;;;;5022657;28;20045;-58
2022/09/29 11:33:51;;;;;;;5.18;3.10;;;;;;;;;;5022495;28;20041;-58
2022/09/29 11:36:23;;;;;;;4.43;2.83;;;;;;;;;;5025478;28;20047;-57
2022/09/29 11:39:11;;;;;;;3.40;1.88;;;;;;;;;;5025920;28;20053;-58
2022/09/29 11:41:43;;;;;;;4.17;2.87;;;;;;;;;;5030674;28;20513;-57
2022/09/29 11:44:11;;;;;;;6.60;3.30;;;;;;;;;;5022796;28;20300;-58
2022/09/29 11:46:37;;;;;;;7.82;3.65;;;;;;;;;;5027621;28;20034;-58
2022/09/29 11:49:21;;;;;;;6.60;3.45;;;;;;;;;;5033232;28;20497;-58
2022/09/29 11:52:00;;;;;;;6.30;2.92;;;;;;;;;;5029837;28;20103;-58
2022/09/29 11:54:32;;;;;;;5.00;3.03;;;;;;;;;;5029050;28;20049;-59
2022/09/29 11:57:03;;;;;;;4.35;2.67;;;;;;;;;;5031290;28;20041;-58
2022/09/29 11:59:29;;;;;;;4.57;2.78;;;;;;;;;;5027531;28;20049;-58
2022/09/29 12:02:09;;;;;;;3.28;2.53;;;;;;;;;;5027583;28;20041;-58
2022/09/29 12:04:54;;;;;;;5.47;2.50;;;;;;;;;;5027677;28;20049;-59
2022/09/29 12:07:21;;;;;;;5.00;2.80;;;;;;;;;;5027532;28;20099;-57
2022/09/29 12:09:55;;;;;;;6.00;2.72;;;;;;;;;;5027526;28;20080;-58
2022/09/29 12:12:29;;;;;;;3.67;2.38;;;;;;;;;;5027138;28;20093;-58
2022/09/29 12:14:56;;;;;;;2.78;1.70;;;;;;;;;;5026700;28;20052;-58
2022/09/29 12:17:24;;;;;;;4.03;2.28;;;;;;;;;;5027056;28;20092;-58
2022/09/29 12:20:00;;;;;;;6.63;3.25;;;;;;;;;;5026984;28;20056;-58
2022/09/29 12:22:27;;;;;;;3.75;2.55;;;;;;;;;;5009791;28;20400;-59
2022/09/29 12:24:54;;;;;;;2.80;2.08;;;;;;;;;;5026535;28;20531;-59
2022/09/29 12:27:24;;;;;;;3.30;2.10;;;;;;;;;;5027379;28;20479;-58
2022/09/29 12:30:01;;;;;;;3.80;2.03;;;;;;;;;;5026181;28;20659;-58
2022/09/29 12:32:32;;;;;;;3.78;2.15;;;;;;;;;;5027442;28;20071;-58
2022/09/29 12:35:00;;;;;;;4.28;1.88;;;;;;;;;;5027479;28;20072;-58
2022/09/29 12:37:31;;;;;;;3.58;1.80;;;;;;;;;;5020144;28;20365;-58
2022/09/29 12:40:09;;;;;;;2.40;1.70;;;;;;;;;;5013998;28;20133;-58
2022/09/29 12:42:35;;;;;;;;;;;;;;;;;;5011993;28;20515;-58
2022/09/29 12:45:07;;;;;;;4.97;1.85;;;;;;;;;;5009380;28;19922;-59
2022/09/29 12:47:46;;;;;;;3.78;1.83;;;;;;;;;;5007487;28;20050;-59
2022/09/29 12:50:18;;;;;;;3.53;2.10;;;;;;;;;;4994419;28;20100;-58
2022/09/29 12:52:57;;;;;;;2.53;1.60;;;;;;;;;;5011359;28;20088;-56
2022/09/29 12:55:29;;;;;;;3.67;1.50;;;;;;;;;;5017023;28;20046;-57
2022/09/29 12:57:59;;;;;;;2.58;1.50;;;;;;;;;;5010510;28;20046;-58
2022/09/29 13:00:25;;;;;;;3.60;1.67;;;;;;;;;;5009248;28;20125;-57
2022/09/29 13:03:05;;;;;;;3.03;1.85;;;;;;;;;;4991388;28;20050;-58
2022/09/29 13:05:37;;;;;;;3.25;1.83;;;;;;;;;;5009352;28;20057;-59
2022/09/29 13:08:04;;;;;;;5.10;1.95;;;;;;;;;;5014906;28;20199;-59
2022/09/29 13:10:42;;;;;;;3.25;1.85;;;;;;;;;;5015752;28;20657;-58
2022/09/29 13:13:23;;;;;;;3.08;1.90;;;;;;;;;;5010538;28;20491;-58
2022/09/29 13:15:58;;;;;;;2.88;1.52;;;;;;;;;;5014314;28;20041;-59
2022/09/29 13:18:42;;;;;;;3.72;1.67;;;;;;;;;;5019746;28;20183;-59
2022/09/29 13:21:14;;;;;;;3.80;1.63;;;;;;;;;;5026112;28;20045;-58
2022/09/29 13:23:40;;;;;;;4.72;1.70;;;;;;;;;;5029561;28;20064;-58
2022/09/29 13:26:25;;;;;;;4.07;1.60;;;;;;;;;;5025689;28;20058;-59
2022/09/29 13:28:53;;;;;;;5.82;1.35;;;;;;;;;;5029498;28;20155;-58
2022/09/29 13:31:21;;;;;;;3.80;1.35;;;;;;;;;;5026003;28;20033;-58
2022/09/29 13:33:49;;;;;;;2.90;1.25;;;;;;;;;;5028731;28;20103;-58
2022/09/29 13:36:24;;;;;;;1.05;0.75;;;;;;;;;;5026159;28;20041;-58
2022/09/29 13:38:54;;;;;;;2.25;0.70;;;;;;;;;;5027350;28;20075;-58
2022/09/29 13:41:21;;;;;;;2.08;0.77;;;;;;;;;;5026491;28;20056;-59
2022/09/29 13:43:48;;;;;;;3.10;0.60;;;;;;;;;;5025339;28;20720;-58
2022/09/29 13:46:25;;;;;;;1.83;0.55;;;;;;;;;;5027179;28;20120;-58
2022/09/29 13:48:53;;;;;;;2.60;1.60;;;;;;;;;;5026826;28;20383;-59
2022/09/29 13:51:22;;;;;;;2.37;1.00;;;;;;;;;;5025419;28;20849;-59
2022/09/29 13:54:08;;;;;;;2.58;1.08;;;;;;;;;;5025125;28;20049;-59
2022/09/29 13:56:34;;;;;;;1.58;0.63;;;;;;;;;;5032699;28;20120;-60
2022/09/29 13:59:01;;;;;;;4.32;0.68;;;;;;;;;;5031519;28;20045;-59
2022/09/29 14:01:30;;;;;;;2.67;0.68;;;;;;;;;;5032301;28;20037;-59
2022/09/29 14:03:58;;;;;;;1.48;0.70;;;;;;;;;;5032250;28;20045;-59
2022/09/29 14:06:26;;;;;;;1.08;0.50;;;;;;;;;;5032097;28;20076;-59
2022/09/29 14:08:54;;;;;;;3.08;0.50;;;;;;;;;;5031803;28;20045;-59
2022/09/29 14:11:20;;;;;;;3.20;0.35;;;;;;;;;;5031444;28;20057;-59
2022/09/29 14:13:51;;;;;;;0.77;0.50;;;;;;;;;;5030748;28;20049;-59
2022/09/29 14:16:26;;;;;;;1.08;0.50;;;;;;;;;;5027519;28;20487;-59
2022/09/29 14:18:54;;;;;;;1.35;0.50;;;;;;;;;;5031604;28;20487;-59
2022/09/29 14:21:40;;;;;;;1.10;0.50;;;;;;;;;;5031744;28;20049;-59
2022/09/29 14:24:26;;;;;;;1.58;0.50;;;;;;;;;;5031368;28;20060;-59
2022/09/29 14:26:53;;;;;;;1.67;0.57;;;;;;;;;;5031108;28;20132;-59
2022/09/29 14:29:23;;;;;;;3.28;0.68;;;;;;;;;;5031103;28;20107;-59
2022/09/29 14:31:52;;;;;;;0.82;0.43;;;;;;;;;;5031702;28;20108;-59
2022/09/29 14:34:21;;;;;;;2.00;0.70;;;;;;;;;;5031402;28;20044;-59
2022/09/29 14:36:47;;;;;;;;;;;;;;;;;;5032217;28;20435;-59
2022/09/29 14:39:14;;;;;;;2.35;0.50;;;;;;;;;;5031595;28;19921;-59
2022/09/29 14:41:41;;;;;;;1.25;0.60;;;;;;;;;;5031680;28;20537;-58
2022/09/29 14:44:10;;;;;;;1.35;0.60;;;;;;;;;;5030500;28;20041;-59
2022/09/29 14:52:39;;;;;;;1.08;0.40;;;;;;;;;;5030934;28;20041;-60
2022/09/29 14:55:14;;;;;;;1.63;0.70;;;;;;;;;;5029870;28;20695;-59
2022/09/29 14:57:48;;;;;;;1.63;0.70;;;;;;;;;;5030130;28;20505;-58